createdAt,value
2024-01-28T00:02:24.607Z,101895.83
2024-01-28T00:04:55.841Z,101898.69
2024-01-28T00:07:26.889Z,101902.92
2024-01-28T00:09:57.894Z,101900.23
2024-01-28T00:12:29.067Z,101904.79
2024-01-28T00:15:01.058Z,101904.73
2024-01-28T00:17:32.526Z,101904.39
2024-01-28T00:20:04.524Z,101908.52
2024-01-28T00:22:38.000Z,101915.40
2024-01-28T00:25:10.201Z,101920.24
2024-01-28T00:27:41.427Z,101924.06
2024-01-28T00:30:15.173Z,101924.98
2024-01-28T00:32:46.443Z,101927.50
2024-01-28T00:35:17.709Z,101933.58
2024-01-28T00:37:48.832Z,101937.77
2024-01-28T00:40:21.487Z,101947.61
2024-01-28T00:42:52.606Z,101951.28
2024-01-28T00:45:23.853Z,101955.95
2024-01-28T00:47:55.209Z,101959.26
2024-01-28T00:50:27.724Z,101957.30
2024-01-28T00:53:01.931Z,101959.55
2024-01-28T00:55:33.217Z,101963.61
2024-01-28T00:58:04.427Z,101963.56
2024-01-28T01:00:35.876Z,101967.86
2024-01-28T01:03:07.157Z,101970.40
2024-01-28T01:05:42.932Z,101973.95
2024-01-28T01:08:14.388Z,101974.16
2024-01-28T01:10:46.915Z,101971.16
2024-01-28T01:13:18.265Z,101973.92
2024-01-28T01:15:49.725Z,101975.75
2024-01-28T01:18:21.251Z,101974.98
2024-01-28T01:20:52.740Z,101972.79
2024-01-28T01:23:23.886Z,101972.09
2024-01-28T01:25:55.030Z,101973.51
2024-01-28T01:28:33.097Z,101971.84
2024-01-28T01:31:05.703Z,101966.91
2024-01-28T01:33:36.976Z,101966.08
2024-01-28T01:36:12.199Z,101968.98
2024-01-28T01:38:43.425Z,101967.98
2024-01-28T01:41:14.507Z,101970.13
2024-01-28T01:43:45.722Z,101972.14
2024-01-28T01:46:17.436Z,101974.17
2024-01-28T01:48:48.708Z,101974.27
2024-01-28T01:51:23.125Z,101978.23
2024-01-28T01:53:54.650Z,101982.23
2024-01-28T01:56:26.088Z,101984.05
2024-01-28T01:58:58.829Z,101992.30
2024-01-28T02:01:31.809Z,101991.66
2024-01-28T02:04:04.618Z,101994.55
2024-01-28T02:06:36.221Z,101988.55
2024-01-28T02:09:09.232Z,101986.83
2024-01-28T02:11:52.335Z,101984.38
2024-01-28T02:14:30.852Z,101980.86
2024-01-28T02:17:02.801Z,101983.04
2024-01-28T02:19:34.045Z,101984.17
2024-01-28T02:22:06.108Z,101982.80
2024-01-28T02:24:37.526Z,101988.14
2024-01-28T02:27:12.223Z,101983.90
2024-01-28T02:29:45.329Z,101978.91
2024-01-28T02:32:37.060Z,101982.11
2024-01-28T02:35:09.718Z,101980.55
2024-01-28T02:37:42.171Z,101982.98
2024-01-28T02:40:14.967Z,101981.16
2024-01-28T02:42:46.071Z,101988.04
2024-01-28T02:45:18.168Z,101999.52
2024-01-28T02:47:50.375Z,102004.61
2024-01-28T02:50:21.652Z,102012.20
2024-01-28T02:52:52.830Z,102017.96
2024-01-28T02:55:26.392Z,102025.11
2024-01-28T02:57:57.732Z,102026.05
2024-01-28T03:00:28.935Z,102027.73
2024-01-28T03:03:03.251Z,102028.80
2024-01-28T03:05:34.747Z,102033.52
2024-01-28T03:08:06.167Z,102042.13
2024-01-28T03:10:37.447Z,102044.23
2024-01-28T03:13:08.821Z,102053.36
2024-01-28T03:15:43.369Z,102060.69
2024-01-28T03:18:14.897Z,102068.19
2024-01-28T03:20:48.875Z,102070.54
2024-01-28T03:23:20.943Z,102068.38
2024-01-28T03:25:52.083Z,102061.08
2024-01-28T03:28:43.923Z,102057.05
2024-01-28T03:31:15.168Z,102056.87
2024-01-28T03:33:46.433Z,102051.81
2024-01-28T03:36:17.676Z,102058.23
2024-01-28T03:38:48.981Z,102064.59
2024-01-28T03:41:22.800Z,102062.86
2024-01-28T03:43:54.150Z,102063.59
2024-01-28T03:46:25.165Z,102066.63
2024-01-28T03:48:56.498Z,102071.96
2024-01-28T03:51:31.040Z,102071.95
2024-01-28T03:54:02.334Z,102061.92
2024-01-28T03:56:35.774Z,102062.02
2024-01-28T03:59:07.108Z,102062.27
2024-01-28T04:01:38.832Z,102063.34
2024-01-28T04:04:10.391Z,102067.84
2024-01-28T04:06:46.481Z,102067.06
2024-01-28T04:09:17.688Z,102069.66
2024-01-28T04:11:48.769Z,102070.30
2024-01-28T04:14:19.781Z,102074.98
2024-01-28T04:16:50.923Z,102075.85
2024-01-28T04:19:22.377Z,102076.05
2024-01-28T04:21:53.520Z,102089.23
2024-01-28T04:24:24.926Z,102097.89
2024-01-28T04:26:57.039Z,102101.14
2024-01-28T04:29:28.186Z,102106.98
2024-01-28T04:32:01.604Z,102114.99
2024-01-28T04:34:32.798Z,102118.61
2024-01-28T04:37:24.840Z,102123.14
2024-01-28T04:39:56.335Z,102121.95
2024-01-28T04:42:27.585Z,102125.58
2024-01-28T04:45:21.705Z,102130.70
2024-01-28T04:47:56.457Z,102129.10
2024-01-28T04:50:27.538Z,102129.00
2024-01-28T04:53:01.481Z,102136.93
2024-01-28T04:55:32.719Z,102141.90
2024-01-28T04:58:03.993Z,102147.92
2024-01-28T05:00:35.896Z,102150.65
2024-01-28T05:03:08.045Z,102151.68
2024-01-28T05:05:39.233Z,102156.34
2024-01-28T05:08:13.500Z,102156.27
2024-01-28T05:10:44.644Z,102161.07
2024-01-28T05:13:16.132Z,102168.48
2024-01-28T05:15:47.825Z,102171.45
2024-01-28T05:18:19.335Z,102173.40
2024-01-28T05:20:50.722Z,102174.45
2024-01-28T05:23:22.256Z,102175.73
2024-01-28T05:25:54.277Z,102177.42
2024-01-28T05:28:25.297Z,102176.35
2024-01-28T05:30:57.205Z,102177.96
2024-01-28T05:33:28.404Z,102177.00
2024-01-28T05:36:02.989Z,102175.71
2024-01-28T05:38:33.992Z,102179.59
2024-01-28T05:41:05.210Z,102179.56
2024-01-28T05:43:36.288Z,102184.96
2024-01-28T05:46:07.923Z,102186.98
2024-01-28T05:48:39.003Z,102187.92
2024-01-28T05:51:10.221Z,102188.13
2024-01-28T05:53:41.941Z,102188.28
2024-01-28T05:56:12.911Z,102192.73
2024-01-28T05:58:44.259Z,102193.56
2024-01-28T06:01:16.318Z,102198.30
2024-01-28T06:03:47.617Z,102201.41
2024-01-28T06:06:18.875Z,102208.23
2024-01-28T06:08:49.922Z,102209.94
2024-01-28T06:11:20.960Z,102208.96
2024-01-28T06:13:51.907Z,102213.44
2024-01-28T06:16:22.761Z,102215.98
2024-01-28T06:18:53.807Z,102220.09
2024-01-28T06:21:24.764Z,102222.15
2024-01-28T06:23:56.161Z,102226.64
2024-01-28T06:26:27.146Z,102226.37
2024-01-28T06:28:58.140Z,102227.77
2024-01-28T06:31:29.036Z,102225.84
2024-01-28T06:34:00.027Z,102228.13
2024-01-28T06:36:31.108Z,102225.83
2024-01-28T06:39:02.007Z,102228.15
2024-01-28T06:41:32.913Z,102230.84
2024-01-28T06:44:04.601Z,102233.42
2024-01-28T06:46:35.621Z,102232.11
2024-01-28T06:49:07.319Z,102233.88
2024-01-28T06:51:44.023Z,102233.80
2024-01-28T06:54:14.985Z,102236.20
2024-01-28T06:56:45.951Z,102235.14
2024-01-28T06:59:16.945Z,102232.55
2024-01-28T07:01:47.982Z,102236.63
2024-01-28T07:04:19.396Z,102241.97
2024-01-28T07:06:50.852Z,102245.48
2024-01-28T07:09:22.938Z,102249.27
2024-01-28T07:11:53.925Z,102246.10
2024-01-28T07:14:24.887Z,102248.44
2024-01-28T07:16:55.828Z,102249.02
2024-01-28T07:19:26.909Z,102253.91
2024-01-28T07:21:57.917Z,102257.44
2024-01-28T07:24:28.914Z,102266.11
2024-01-28T07:26:59.881Z,102266.79
2024-01-28T07:29:30.926Z,102269.10
2024-01-28T07:32:01.980Z,102267.14
2024-01-28T07:34:33.213Z,102264.66
2024-01-28T07:37:04.428Z,102263.77
2024-01-28T07:39:35.568Z,102258.62
2024-01-28T07:42:07.102Z,102256.34
2024-01-28T07:44:38.312Z,102254.70
2024-01-28T07:47:09.623Z,102254.66
2024-01-28T07:49:40.706Z,102257.85
2024-01-28T07:52:11.748Z,102265.65
2024-01-28T07:54:42.675Z,102268.48
2024-01-28T07:57:13.684Z,102271.95
2024-01-28T07:59:44.884Z,102266.98
2024-01-28T08:02:15.886Z,102270.73
2024-01-28T08:04:48.834Z,102267.86
2024-01-28T08:07:20.113Z,102264.61
2024-01-28T08:09:51.228Z,102262.59
2024-01-28T08:12:22.460Z,102265.25
2024-01-28T08:14:55.420Z,102266.83
2024-01-28T08:17:27.478Z,102268.04
2024-01-28T08:19:58.827Z,102266.81
2024-01-28T08:22:29.923Z,102267.68
2024-01-28T08:25:01.901Z,102267.11
2024-01-28T08:27:33.002Z,102270.98
2024-01-28T08:30:04.484Z,102279.95
2024-01-28T08:32:35.450Z,102285.84
2024-01-28T08:35:08.029Z,102290.85
2024-01-28T08:37:39.056Z,102296.62
2024-01-28T08:40:12.386Z,102293.58
2024-01-28T08:42:44.124Z,102292.85
2024-01-28T08:45:15.091Z,102290.95
2024-01-28T08:47:46.084Z,102289.02
2024-01-28T08:50:18.245Z,102289.73
2024-01-28T08:52:52.697Z,102291.77
2024-01-28T08:55:24.377Z,102300.10
2024-01-28T08:57:55.307Z,102298.58
2024-01-28T09:00:26.863Z,102300.77
2024-01-28T09:02:57.926Z,102298.55
2024-01-28T09:05:28.960Z,102300.39
2024-01-28T09:08:00.120Z,102307.20
2024-01-28T09:10:31.001Z,102309.51
2024-01-28T09:13:02.047Z,102310.50
2024-01-28T09:15:33.181Z,102311.65
2024-01-28T09:18:07.220Z,102317.74
2024-01-28T09:20:38.255Z,102310.05
2024-01-28T09:23:09.473Z,102309.63
2024-01-28T09:25:40.851Z,102308.84
2024-01-28T09:28:11.781Z,102308.66
2024-01-28T09:30:43.517Z,102308.04
2024-01-28T09:33:14.955Z,102314.20
2024-01-28T09:35:48.133Z,102314.83
2024-01-28T09:38:20.169Z,102320.02
2024-01-28T09:40:51.622Z,102321.36
2024-01-28T09:43:30.530Z,102317.12
2024-01-28T09:46:01.975Z,102318.27
2024-01-28T09:48:33.658Z,102317.15
2024-01-28T09:51:05.083Z,102314.23
2024-01-28T09:53:36.138Z,102317.42
2024-01-28T09:56:10.848Z,102316.00
2024-01-28T09:58:45.281Z,102322.82
2024-01-28T10:03:49.838Z,102323.86
2024-01-28T10:06:22.376Z,102333.24
2024-01-28T10:08:53.382Z,102329.31
2024-01-28T10:11:25.257Z,102334.02
2024-01-28T10:13:56.285Z,102335.05
2024-01-28T10:16:33.153Z,102337.12
2024-01-28T10:19:04.548Z,102330.06
2024-01-28T10:21:36.611Z,102330.91
2024-01-28T10:24:10.035Z,102332.27
2024-01-28T10:26:41.591Z,102327.84
2024-01-28T10:29:14.749Z,102330.60
2024-01-28T10:31:46.273Z,102330.90
2024-01-28T10:34:17.431Z,102335.23
2024-01-28T10:36:51.406Z,102335.26
2024-01-28T10:39:24.758Z,102338.35
2024-01-28T10:41:59.325Z,102340.16
2024-01-28T10:44:31.036Z,102346.95
2024-01-28T10:47:02.692Z,102347.05
2024-01-28T10:49:37.496Z,102343.87
2024-01-28T10:52:11.806Z,102347.73
2024-01-28T10:54:44.018Z,102345.64
2024-01-28T10:57:16.348Z,102351.58
2024-01-28T10:59:48.178Z,102355.92
2024-01-28T11:02:21.259Z,102359.20
2024-01-28T11:04:53.900Z,102360.56
2024-01-28T11:07:26.461Z,102359.36
2024-01-28T11:09:57.479Z,102358.52
2024-01-28T11:12:29.917Z,102357.48
2024-01-28T11:15:03.348Z,102360.60
2024-01-28T11:17:39.631Z,102359.50
2024-01-28T11:20:13.528Z,102359.55
2024-01-28T11:22:54.202Z,102359.90
2024-01-28T11:25:26.571Z,102367.27
2024-01-28T11:28:02.417Z,102369.35
2024-01-28T11:30:35.977Z,102371.75
2024-01-28T11:33:15.097Z,102373.26
2024-01-28T11:35:48.355Z,102378.11
2024-01-28T11:38:24.072Z,102375.42
2024-01-28T11:41:01.538Z,102371.48
2024-01-28T11:43:32.728Z,102368.81
2024-01-28T11:46:04.523Z,102367.36
2024-01-28T11:48:35.944Z,102370.07
2024-01-28T11:51:07.698Z,102371.39
2024-01-28T11:53:39.026Z,102370.38
2024-01-28T11:56:11.357Z,102367.48
2024-01-28T11:58:50.238Z,102365.25
2024-01-28T12:01:21.593Z,102368.45
2024-01-28T12:03:55.563Z,102368.54
2024-01-28T12:06:29.480Z,102370.65
2024-01-28T12:09:01.667Z,102375.31
2024-01-28T12:11:33.562Z,102377.59
2024-01-28T12:14:07.162Z,102380.76
2024-01-28T12:16:38.928Z,102381.69
2024-01-28T12:19:18.035Z,102387.69
2024-01-28T12:21:50.873Z,102393.55
2024-01-28T12:24:26.681Z,102394.71
2024-01-28T12:27:00.036Z,102395.11
2024-01-28T12:29:31.395Z,102396.86
2024-01-28T12:32:04.027Z,102397.05
2024-01-28T12:34:36.748Z,102399.16
2024-01-28T12:37:09.034Z,102394.67
2024-01-28T12:39:40.321Z,102400.44
2024-01-28T12:42:12.334Z,102401.53
2024-01-28T12:44:43.435Z,102400.27
2024-01-28T12:47:14.757Z,102402.02
2024-01-28T12:49:45.853Z,102402.66
2024-01-28T12:52:17.359Z,102401.94
2024-01-28T12:54:48.617Z,102396.39
2024-01-28T12:57:19.745Z,102395.19
2024-01-28T12:59:50.930Z,102396.24
2024-01-28T13:02:21.962Z,102396.39
2024-01-28T13:04:58.842Z,102399.45
2024-01-28T13:07:29.870Z,102396.70
2024-01-28T13:10:01.021Z,102392.27
2024-01-28T13:12:34.969Z,102395.64
2024-01-28T13:15:07.252Z,102397.61
2024-01-28T13:17:39.851Z,102398.40
2024-01-28T13:20:14.862Z,102400.40
2024-01-28T13:22:46.599Z,102401.59
2024-01-28T13:25:21.138Z,102401.42
2024-01-28T13:27:52.246Z,102402.24
2024-01-28T13:30:23.850Z,102401.38
2024-01-28T13:32:57.591Z,102403.70
2024-01-28T13:35:30.100Z,102408.50
2024-01-28T13:38:01.898Z,102401.96
2024-01-28T13:40:34.819Z,102407.41
2024-01-28T13:43:06.596Z,102407.58
2024-01-28T13:45:37.966Z,102408.92
2024-01-28T13:48:11.116Z,102411.60
2024-01-28T13:50:42.531Z,102406.63
2024-01-28T13:53:13.579Z,102406.98
2024-01-28T13:55:44.961Z,102405.30
2024-01-28T13:58:16.410Z,102405.83
2024-01-28T14:00:47.556Z,102400.74
2024-01-28T14:03:18.844Z,102397.52
2024-01-28T14:05:51.096Z,102400.41
2024-01-28T14:08:22.774Z,102398.58
2024-01-28T14:10:53.817Z,102399.50
2024-01-28T14:13:25.070Z,102403.47
2024-01-28T14:15:56.303Z,102406.85
2024-01-28T14:18:27.955Z,102408.56
2024-01-28T14:20:59.398Z,102411.81
2024-01-28T14:23:30.336Z,102408.23
2024-01-28T14:26:02.318Z,102411.98
2024-01-28T14:28:33.301Z,102411.25
2024-01-28T14:31:04.320Z,102409.88
2024-01-28T14:33:35.661Z,102407.41
2024-01-28T14:36:08.137Z,102411.36
2024-01-28T14:38:39.134Z,102408.32
2024-01-28T14:41:10.824Z,102404.36
2024-01-28T14:43:42.222Z,102401.42
2024-01-28T14:46:13.547Z,102400.20
2024-01-28T14:48:45.025Z,102402.14
2024-01-28T14:51:16.088Z,102407.48
2024-01-28T14:53:47.197Z,102411.36
2024-01-28T14:56:18.425Z,102406.83
2024-01-28T14:58:49.351Z,102404.79
2024-01-28T15:01:20.525Z,102404.95
2024-01-28T15:03:51.586Z,102410.27
2024-01-28T15:06:23.708Z,102410.83
2024-01-28T15:08:55.064Z,102408.32
2024-01-28T15:11:26.080Z,102412.11
2024-01-28T15:13:57.238Z,102416.73
2024-01-28T15:16:28.241Z,102415.89
2024-01-28T15:19:00.921Z,102417.14
2024-01-28T15:21:32.095Z,102422.17
2024-01-28T15:24:02.994Z,102421.88
2024-01-28T15:26:33.973Z,102423.02
2024-01-28T15:29:04.946Z,102421.88
2024-01-28T15:31:35.941Z,102422.09
2024-01-28T15:34:06.996Z,102424.03
2024-01-28T15:36:38.222Z,102426.11
2024-01-28T15:39:11.245Z,102431.19
2024-01-28T15:41:42.625Z,102432.35
2024-01-28T15:44:13.553Z,102437.27
2024-01-28T15:46:44.687Z,102434.34
2024-01-28T15:49:15.870Z,102435.68
2024-01-28T15:51:47.081Z,102435.48
2024-01-28T15:54:18.137Z,102434.73
2024-01-28T15:56:49.334Z,102429.35
2024-01-28T15:59:21.714Z,102425.74
2024-01-28T16:01:52.657Z,102418.89
2024-01-28T16:04:23.528Z,102414.15
2024-01-28T16:06:54.584Z,102411.80
2024-01-28T16:09:30.614Z,102416.39
2024-01-28T16:12:07.376Z,102415.98
2024-01-28T16:14:38.732Z,102418.42
2024-01-28T16:17:11.872Z,102424.64
2024-01-28T16:19:42.901Z,102423.36
2024-01-28T16:22:14.033Z,102422.73
2024-01-28T16:24:45.371Z,102422.58
2024-01-28T16:27:17.146Z,102426.08
2024-01-28T16:29:48.105Z,102425.27
2024-01-28T16:32:19.427Z,102423.92
2024-01-28T16:34:50.637Z,102423.86
2024-01-28T16:37:22.637Z,102433.67
2024-01-28T16:39:53.896Z,102436.24
2024-01-28T16:42:25.004Z,102442.23
2024-01-28T16:44:56.374Z,102444.80
2024-01-28T16:47:28.725Z,102455.36
2024-01-28T16:49:59.855Z,102459.85
2024-01-28T16:52:31.941Z,102466.59
2024-01-28T16:55:03.944Z,102467.02
2024-01-28T16:57:35.778Z,102470.58
2024-01-28T17:00:08.341Z,102475.34
2024-01-28T17:02:39.508Z,102473.38
2024-01-28T17:05:11.331Z,102470.30
2024-01-28T17:07:42.475Z,102468.39
2024-01-28T17:10:14.792Z,102472.55
2024-01-28T17:12:46.054Z,102470.39
2024-01-28T17:15:18.169Z,102468.44
2024-01-28T17:17:49.173Z,102470.00
2024-01-28T17:20:20.658Z,102472.20
2024-01-28T17:22:51.800Z,102478.70
2024-01-28T17:25:22.986Z,102482.00
2024-01-28T17:27:54.304Z,102478.11
2024-01-28T17:30:25.500Z,102476.17
2024-01-28T17:32:56.599Z,102479.81
2024-01-28T17:35:27.897Z,102488.24
2024-01-28T17:37:59.046Z,102488.89
2024-01-28T17:40:30.580Z,102486.53
2024-01-28T17:43:01.704Z,102482.94
2024-01-28T17:45:33.176Z,102484.45
2024-01-28T17:48:04.504Z,102486.77
2024-01-28T17:50:37.952Z,102487.11
2024-01-28T17:53:12.757Z,102486.23
2024-01-28T17:55:46.400Z,102487.39
2024-01-28T17:58:17.804Z,102485.32
2024-01-28T18:00:48.841Z,102476.42
2024-01-28T18:03:21.831Z,102473.22
2024-01-28T18:05:52.934Z,102477.77
2024-01-28T18:08:24.445Z,102475.83
2024-01-28T18:10:55.477Z,102470.35
2024-01-28T18:13:26.563Z,102471.85
2024-01-28T18:15:58.134Z,102475.32
2024-01-28T18:18:30.532Z,102477.44
2024-01-28T18:21:01.667Z,102480.55
2024-01-28T18:23:32.746Z,102480.48
2024-01-28T18:26:03.817Z,102481.61
2024-01-28T18:28:34.845Z,102478.65
2024-01-28T18:31:06.670Z,102482.83
2024-01-28T18:33:38.332Z,102483.41
2024-01-28T18:36:13.393Z,102485.40
2024-01-28T18:38:44.385Z,102485.13
2024-01-28T18:41:15.373Z,102489.52
2024-01-28T18:43:48.321Z,102486.56
2024-01-28T18:46:19.283Z,102480.63
2024-01-28T18:48:50.411Z,102485.88
2024-01-28T18:51:21.563Z,102487.00
2024-01-28T18:53:52.863Z,102491.77
2024-01-28T18:56:24.087Z,102493.51
2024-01-28T18:58:55.075Z,102496.08
2024-01-28T19:01:26.199Z,102493.35
2024-01-28T19:03:57.506Z,102492.96
2024-01-28T19:06:29.146Z,102493.27
2024-01-28T19:09:00.341Z,102491.54
2024-01-28T19:11:31.317Z,102489.60
2024-01-28T19:14:03.209Z,102487.55
2024-01-28T19:16:35.980Z,102490.82
2024-01-28T19:19:08.360Z,102490.27
2024-01-28T19:21:41.161Z,102494.70
2024-01-28T19:24:12.959Z,102496.27
2024-01-28T19:26:44.010Z,102503.64
2024-01-28T19:29:16.330Z,102501.97
2024-01-28T19:31:47.326Z,102494.48
2024-01-28T19:34:18.967Z,102492.23
2024-01-28T19:36:53.378Z,102491.33
2024-01-28T19:39:26.032Z,102485.08
2024-01-28T19:41:57.041Z,102483.11
2024-01-28T19:44:28.869Z,102482.13
2024-01-28T19:46:59.658Z,102475.52
2024-01-28T19:49:32.425Z,102473.12
2024-01-28T19:52:03.414Z,102478.93
2024-01-28T19:54:34.278Z,102483.48
2024-01-28T19:57:06.783Z,102477.39
2024-01-28T19:59:37.988Z,102478.56
2024-01-28T20:02:09.005Z,102478.25
2024-01-28T20:04:40.149Z,102486.63
2024-01-28T20:07:15.677Z,102486.50
2024-01-28T20:09:48.072Z,102490.46
2024-01-28T20:12:20.475Z,102495.54
2024-01-28T20:14:51.716Z,102502.69
2024-01-28T20:17:22.679Z,102506.08
2024-01-28T20:19:57.290Z,102499.77
2024-01-28T20:22:28.240Z,102496.39
2024-01-28T20:25:00.119Z,102492.92
2024-01-28T20:27:31.171Z,102501.80
2024-01-28T20:30:02.972Z,102508.31
2024-01-28T20:32:33.886Z,102505.92
2024-01-28T20:35:07.014Z,102496.91
2024-01-28T20:37:38.323Z,102501.80
2024-01-28T20:40:11.004Z,102507.39
2024-01-28T20:42:51.105Z,102510.59
2024-01-28T20:45:23.599Z,102512.03
2024-01-28T20:47:55.743Z,102515.00
2024-01-28T20:50:26.731Z,102514.58
2024-01-28T20:52:57.808Z,102505.60
2024-01-28T20:55:28.909Z,102493.70
2024-01-28T20:57:59.996Z,102487.53
2024-01-28T21:00:31.308Z,102479.80
2024-01-28T21:03:02.865Z,102477.05
2024-01-28T21:05:33.915Z,102472.57
2024-01-28T21:08:05.046Z,102470.64
2024-01-28T21:10:38.560Z,102464.10
2024-01-28T21:13:09.679Z,102455.38
2024-01-28T21:15:40.813Z,102460.17
2024-01-28T21:18:11.901Z,102459.47
2024-01-28T21:20:42.878Z,102463.42
2024-01-28T21:23:14.082Z,102466.20
2024-01-28T21:25:45.335Z,102472.23
2024-01-28T21:28:17.849Z,102473.45
2024-01-28T21:30:49.180Z,102469.73
2024-01-28T21:33:23.537Z,102465.69
2024-01-28T21:35:54.953Z,102469.94
2024-01-28T21:38:26.621Z,102480.66
2024-01-28T21:40:57.630Z,102482.73
2024-01-28T21:43:28.824Z,102487.13
2024-01-28T21:45:59.771Z,102489.11
2024-01-28T21:48:31.868Z,102490.74
2024-01-28T21:51:02.945Z,102493.77
2024-01-28T21:53:34.580Z,102499.50
2024-01-28T21:56:06.079Z,102505.07
2024-01-28T21:58:37.983Z,102509.33
2024-01-28T22:01:08.970Z,102506.77
2024-01-28T22:03:40.152Z,102510.80
2024-01-28T22:06:11.370Z,102508.80
2024-01-28T22:08:42.612Z,102510.92
2024-01-28T22:11:14.837Z,102508.06
2024-01-28T22:13:45.984Z,102500.51
2024-01-28T22:16:19.701Z,102490.73
2024-01-28T22:18:51.766Z,102488.77
2024-01-28T22:21:24.553Z,102489.85
2024-01-28T22:23:56.423Z,102494.14
2024-01-28T22:26:27.947Z,102500.77
2024-01-28T22:28:58.990Z,102505.13
2024-01-28T22:31:30.261Z,102507.14
2024-01-28T22:34:01.207Z,102506.27
2024-01-28T22:36:32.268Z,102509.85
2024-01-28T22:39:03.233Z,102509.59
2024-01-28T22:41:34.256Z,102509.38
2024-01-28T22:44:05.355Z,102508.46
2024-01-28T22:46:36.305Z,102516.91
2024-01-28T22:49:08.106Z,102519.21
2024-01-28T22:51:39.212Z,102517.83
2024-01-28T22:54:11.147Z,102508.44
2024-01-28T22:56:42.051Z,102509.40
2024-01-28T22:59:14.386Z,102508.45
2024-01-28T23:01:45.368Z,102504.23
2024-01-28T23:04:16.706Z,102498.70
2024-01-28T23:06:47.849Z,102497.86
2024-01-28T23:09:18.867Z,102499.44
2024-01-28T23:11:49.800Z,102502.59
2024-01-28T23:14:20.864Z,102502.65
2024-01-28T23:16:51.846Z,102501.41
2024-01-28T23:19:22.942Z,102503.86
2024-01-28T23:21:54.775Z,102507.70
2024-01-28T23:24:25.995Z,102509.48
2024-01-28T23:26:57.048Z,102506.65
2024-01-28T23:29:28.352Z,102502.48
2024-01-28T23:32:01.156Z,102500.02
2024-01-28T23:34:32.177Z,102495.18
2024-01-28T23:37:03.713Z,102491.98
2024-01-28T23:39:35.341Z,102492.54
2024-01-28T23:42:07.058Z,102486.22
2024-01-28T23:44:38.098Z,102487.86
2024-01-28T23:47:09.321Z,102492.02
2024-01-28T23:49:40.547Z,102502.20
2024-01-28T23:52:11.733Z,102504.86
2024-01-28T23:54:45.104Z,102501.20
2024-01-28T23:57:16.539Z,102503.91
2024-01-28T23:59:47.504Z,102503.02
